Time;durP1;ratioP1;P1;durP2;ratioP2;P2;SDS_P1;SDS_P2;PMS_P1;PMS_P2;Temp;Humidity;BMP_temperature;BMP_pressure;BME280_temperature;BME280_humidity;BME280_pressure;Samples;Min_cycle;Max_cycle;Signal;HPM_P1;HPM_P2
2022/01/16 00:00:57;;;;;;;18.20;6.72;;;;;;;;;;6241375;28;20511;-65
2022/01/16 00:04:07;;;;;;;18.38;8.25;;;;;;;;;;6243474;28;20134;-65
2022/01/16 00:07:10;;;;;;;23.58;8.57;;;;;;;;;;6242200;28;20344;-65
2022/01/16 00:10:17;;;;;;;21.85;7.32;;;;;;;;;;6243499;28;20072;-65
2022/01/16 00:13:20;;;;;;;14.10;6.38;;;;;;;;;;6243916;28;20411;-65
2022/01/16 00:16:24;;;;;;;38.95;15.40;;;;;;;;;;6243897;28;20068;-64
2022/01/16 00:19:27;;;;;;;18.27;7.03;;;;;;;;;;6243566;28;20056;-65
2022/01/16 00:22:36;;;;;;;21.50;7.15;;;;;;;;;;6242432;28;20068;-65
2022/01/16 00:25:39;;;;;;;21.08;7.20;;;;;;;;;;6244494;28;20499;-65
2022/01/16 00:28:42;;;;;;;18.75;6.63;;;;;;;;;;6244770;28;20131;-65
2022/01/16 00:31:46;;;;;;;17.13;6.53;;;;;;;;;;6244412;28;20511;-65
2022/01/16 00:34:49;;;;;;;19.85;6.78;;;;;;;;;;6243353;28;20058;-65
2022/01/16 00:37:55;;;;;;;21.52;7.22;;;;;;;;;;6243752;28;20123;-66
2022/01/16 00:40:58;;;;;;;17.88;6.50;;;;;;;;;;6242899;28;20440;-65
2022/01/16 00:44:01;;;;;;;16.10;6.82;;;;;;;;;;6241759;28;20061;-66
2022/01/16 00:47:08;;;;;;;16.07;6.43;;;;;;;;;;6243112;28;20135;-65
2022/01/16 00:50:11;;;;;;;14.43;6.43;;;;;;;;;;6242851;28;20282;-65
2022/01/16 00:53:14;;;;;;;19.98;7.53;;;;;;;;;;6225232;28;20069;-65
2022/01/16 00:56:17;;;;;;;17.38;6.07;;;;;;;;;;6242734;28;20068;-65
2022/01/16 00:59:20;;;;;;;17.60;6.47;;;;;;;;;;6242860;28;20073;-64
2022/01/16 01:02:24;;;;;;;20.15;6.60;;;;;;;;;;6242505;28;20050;-65
2022/01/16 01:05:29;;;;;;;16.17;6.47;;;;;;;;;;6242801;28;20072;-65
2022/01/16 01:08:32;;;;;;;15.48;6.65;;;;;;;;;;6241458;28;20060;-65
2022/01/16 01:11:38;;;;;;;18.00;6.68;;;;;;;;;;6242449;28;20500;-64
2022/01/16 01:14:42;;;;;;;15.40;6.23;;;;;;;;;;6242694;28;20042;-65
2022/01/16 01:17:49;;;;;;;19.20;6.78;;;;;;;;;;6242593;28;20326;-65
2022/01/16 01:20:52;;;;;;;16.58;6.88;;;;;;;;;;6242552;28;20172;-65
2022/01/16 01:23:55;;;;;;;16.10;6.85;;;;;;;;;;6242654;28;20120;-64
2022/01/16 01:27:03;;;;;;;18.15;7.03;;;;;;;;;;6242950;28;20037;-65
2022/01/16 01:30:09;;;;;;;21.23;6.82;;;;;;;;;;6241193;28;20512;-65
2022/01/16 01:33:14;;;;;;;19.55;6.68;;;;;;;;;;6242436;28;20050;-64
2022/01/16 01:36:17;;;;;;;14.52;6.15;;;;;;;;;;6241306;28;20049;-64
2022/01/16 01:39:21;;;;;;;16.52;5.82;;;;;;;;;;6242326;28;20717;-65
2022/01/16 01:42:31;;;;;;;16.83;6.50;;;;;;;;;;6242101;28;20128;-64
2022/01/16 01:52:20;;;;;;;17.85;5.82;;;;;;;;;;6224350;28;20042;-66
2022/01/16 01:55:23;;;;;;;12.85;5.97;;;;;;;;;;6242400;28;20084;-63
2022/01/16 01:58:26;;;;;;;17.02;6.88;;;;;;;;;;6240594;28;20055;-66
2022/01/16 02:01:30;;;;;;;17.02;6.40;;;;;;;;;;6242209;28;20073;-64
2022/01/16 02:04:37;;;;;;;18.75;5.80;;;;;;;;;;6241183;28;20143;-64
2022/01/16 02:07:43;;;;;;;13.60;5.70;;;;;;;;;;6241580;28;20080;-64
2022/01/16 02:10:45;;;;;;;14.18;5.93;;;;;;;;;;6244267;28;20530;-64
2022/01/16 02:13:54;;;;;;;14.70;5.70;;;;;;;;;;6246768;28;20484;-64
2022/01/16 02:37:19;;;;;;;11.10;4.53;;;;;;;;;;6243609;28;20446;-65
2022/01/16 02:40:26;;;;;;;14.03;4.93;;;;;;;;;;6245047;28;20452;-65
2022/01/16 02:43:32;;;;;;;17.05;5.60;;;;;;;;;;6245895;28;20389;-66
2022/01/16 02:46:39;;;;;;;15.32;5.32;;;;;;;;;;6227875;28;20069;-64
2022/01/16 02:49:44;;;;;;;15.30;5.30;;;;;;;;;;6244617;28;20119;-65
2022/01/16 02:52:50;;;;;;;16.63;4.88;;;;;;;;;;6245825;28;20507;-65
2022/01/16 02:55:54;;;;;;;12.70;4.45;;;;;;;;;;6245647;28;20041;-65
2022/01/16 02:58:57;;;;;;;15.13;5.32;;;;;;;;;;6244170;28;20488;-66
2022/01/16 03:02:00;;;;;;;11.93;4.47;;;;;;;;;;6245693;28;20049;-64
2022/01/16 03:05:04;;;;;;;14.20;4.30;;;;;;;;;;6245424;28;20096;-64
2022/01/16 03:08:07;;;;;;;16.33;5.00;;;;;;;;;;6243744;28;20055;-64
2022/01/16 03:11:24;;;;;;;16.33;5.20;;;;;;;;;;6244021;28;20065;-65
2022/01/16 03:14:27;;;;;;;18.80;5.20;;;;;;;;;;6243921;28;20168;-64
2022/01/16 03:17:39;;;;;;;14.18;5.10;;;;;;;;;;6245237;28;20080;-64
2022/01/16 03:24:03;;;;;;;15.27;4.88;;;;;;;;;;6245399;28;20065;-65
2022/01/16 03:27:12;;;;;;;13.13;5.15;;;;;;;;;;6245189;28;20120;-64
2022/01/16 03:30:15;;;;;;;12.13;4.78;;;;;;;;;;6244757;28;20060;-64
2022/01/16 03:33:21;;;;;;;15.30;4.53;;;;;;;;;;6244198;28;20048;-65
2022/01/16 03:36:24;;;;;;;13.10;4.72;;;;;;;;;;6244638;28;20077;-64
2022/01/16 03:39:30;;;;;;;11.93;4.47;;;;;;;;;;6244792;28;20065;-66
2022/01/16 03:42:36;;;;;;;13.25;4.18;;;;;;;;;;6243051;28;20073;-66
2022/01/16 03:45:40;;;;;;;17.08;5.03;;;;;;;;;;6244563;28;20128;-65
2022/01/16 03:48:43;;;;;;;12.15;4.32;;;;;;;;;;6244656;28;20487;-64
2022/01/16 03:51:47;;;;;;;13.23;5.38;;;;;;;;;;6243017;28;20479;-64
2022/01/16 03:54:52;;;;;;;14.15;4.85;;;;;;;;;;6244717;28;20077;-64
2022/01/16 03:57:56;;;;;;;23.80;9.85;;;;;;;;;;6244588;28;20055;-64
2022/01/16 04:00:59;;;;;;;22.58;8.07;;;;;;;;;;6244832;28;20073;-66
2022/01/16 04:04:03;;;;;;;15.48;5.22;;;;;;;;;;6246151;28;20071;-71
2022/01/16 04:07:07;;;;;;;12.32;4.93;;;;;;;;;;6246421;28;20080;-66
2022/01/16 04:10:11;;;;;;;10.63;4.85;;;;;;;;;;6226292;28;20051;-67
2022/01/16 04:13:19;;;;;;;10.88;4.75;;;;;;;;;;6243624;28;20460;-65
2022/01/16 04:16:23;;;;;;;14.35;4.18;;;;;;;;;;6244079;28;20053;-65
2022/01/16 04:19:26;;;;;;;13.45;4.63;;;;;;;;;;6243768;28;20440;-65
2022/01/16 04:22:29;;;;;;;11.02;4.30;;;;;;;;;;6242331;28;20056;-65
2022/01/16 04:25:32;;;;;;;14.80;4.75;;;;;;;;;;6243157;28;20072;-65
2022/01/16 04:28:36;;;;;;;14.05;5.22;;;;;;;;;;6242184;28;20056;-64
2022/01/16 04:31:41;;;;;;;14.95;5.15;;;;;;;;;;6242672;28;20092;-65
2022/01/16 04:34:46;;;;;;;12.25;4.70;;;;;;;;;;6243195;28;20061;-65
2022/01/16 04:37:50;;;;;;;14.77;4.85;;;;;;;;;;6243181;28;20076;-64
2022/01/16 04:44:29;;;;;;;13.60;5.10;;;;;;;;;;6217020;28;20518;-65
2022/01/16 04:47:33;;;;;;;16.70;4.88;;;;;;;;;;6242710;28;20484;-65
2022/01/16 04:50:36;;;;;;;11.30;4.65;;;;;;;;;;6242146;28;20072;-66
2022/01/16 04:53:39;;;;;;;13.77;4.93;;;;;;;;;;6241918;28;20048;-65
2022/01/16 04:56:42;;;;;;;12.90;5.00;;;;;;;;;;6242748;28;20076;-65
2022/01/16 04:59:46;;;;;;;10.55;5.20;;;;;;;;;;6241455;28;20057;-65
2022/01/16 05:02:49;;;;;;;11.30;4.35;;;;;;;;;;6242761;28;20076;-66
2022/01/16 05:05:55;;;;;;;16.48;4.50;;;;;;;;;;6241434;28;20081;-65
2022/01/16 05:08:58;;;;;;;13.02;4.68;;;;;;;;;;6242376;28;20073;-65
2022/01/16 05:12:10;;;;;;;12.63;4.45;;;;;;;;;;6242779;28;20124;-66
2022/01/16 05:18:34;;;;;;;9.63;3.83;;;;;;;;;;6224758;28;20151;-65
2022/01/16 05:21:38;;;;;;;12.27;4.72;;;;;;;;;;6240974;28;20076;-65
2022/01/16 05:24:43;;;;;;;12.45;4.72;;;;;;;;;;6242420;28;20455;-65
2022/01/16 05:27:46;;;;;;;13.68;4.55;;;;;;;;;;6241088;28;20049;-64
2022/01/16 05:30:51;;;;;;;14.23;5.00;;;;;;;;;;6240854;28;20068;-65
2022/01/16 05:33:53;;;;;;;12.80;4.15;;;;;;;;;;6241034;28;20475;-66
2022/01/16 05:36:59;;;;;;;15.52;4.75;;;;;;;;;;6242212;28;20431;-66
2022/01/16 05:40:02;;;;;;;12.27;4.82;;;;;;;;;;6241950;28;20072;-65
2022/01/16 05:43:05;;;;;;;13.93;4.60;;;;;;;;;;6241685;28;20254;-65
2022/01/16 05:46:12;;;;;;;12.57;5.05;;;;;;;;;;6245836;28;20084;-66
2022/01/16 05:49:17;;;;;;;14.70;5.20;;;;;;;;;;6247331;28;20084;-66
2022/01/16 05:52:20;;;;;;;14.55;5.65;;;;;;;;;;6246843;28;20081;-66
2022/01/16 05:55:26;;;;;;;14.85;5.00;;;;;;;;;;6245694;28;20332;-67
2022/01/16 05:58:33;;;;;;;13.48;5.03;;;;;;;;;;6245671;28;20065;-66
2022/01/16 06:01:37;;;;;;;13.40;5.63;;;;;;;;;;6246802;28;20052;-66
2022/01/16 06:04:40;;;;;;;16.83;5.45;;;;;;;;;;6247053;28;20076;-66
2022/01/16 06:07:45;;;;;;;15.38;4.95;;;;;;;;;;6246662;28;20072;-65
2022/01/16 06:10:48;;;;;;;13.55;5.07;;;;;;;;;;6246882;28;20419;-65
2022/01/16 06:13:52;;;;;;;12.38;4.70;;;;;;;;;;6245118;28;20045;-65
2022/01/16 06:16:56;;;;;;;15.13;4.68;;;;;;;;;;6246733;28;20065;-66
2022/01/16 06:19:59;;;;;;;16.95;5.65;;;;;;;;;;6246500;28;20045;-66
2022/01/16 06:23:04;;;;;;;17.00;5.10;;;;;;;;;;6246320;28;20076;-65
2022/01/16 06:26:10;;;;;;;14.85;5.05;;;;;;;;;;6246265;28;20151;-65
2022/01/16 06:29:13;;;;;;;19.98;5.55;;;;;;;;;;6246176;28;20536;-64
2022/01/16 06:32:20;;;;;;;16.63;5.45;;;;;;;;;;6245348;28;20056;-65
2022/01/16 06:35:24;;;;;;;11.27;5.30;;;;;;;;;;6245949;28;20448;-65
2022/01/16 06:38:27;;;;;;;16.83;5.60;;;;;;;;;;6246522;28;20049;-66
2022/01/16 06:41:30;;;;;;;17.77;5.07;;;;;;;;;;6246148;28;20113;-65
2022/01/16 06:44:32;;;;;;;21.85;6.38;;;;;;;;;;6245717;28;20069;-65
2022/01/16 06:47:37;;;;;;;13.93;6.05;;;;;;;;;;6244677;28;20053;-65
2022/01/16 06:50:42;;;;;;;15.73;5.47;;;;;;;;;;6245810;28;20472;-65
2022/01/16 06:53:48;;;;;;;16.83;5.45;;;;;;;;;;6245686;28;20077;-66
2022/01/16 06:56:50;;;;;;;13.55;5.70;;;;;;;;;;6244789;28;20046;-65
2022/01/16 06:59:53;;;;;;;12.70;5.28;;;;;;;;;;6245713;28;20550;-65
2022/01/16 07:02:58;;;;;;;11.95;4.72;;;;;;;;;;6244039;28;20049;-67
2022/01/16 07:06:01;;;;;;;15.60;5.28;;;;;;;;;;6245101;28;20389;-66
2022/01/16 07:09:04;;;;;;;14.20;5.45;;;;;;;;;;6245378;28;20053;-65
2022/01/16 07:12:10;;;;;;;14.27;5.03;;;;;;;;;;6246256;28;20126;-66
2022/01/16 07:15:13;;;;;;;15.55;6.13;;;;;;;;;;6243798;28;20057;-65
2022/01/16 07:18:17;;;;;;;14.25;5.45;;;;;;;;;;6245383;28;20121;-65
2022/01/16 07:21:20;;;;;;;15.68;4.97;;;;;;;;;;6243865;28;20045;-65
2022/01/16 07:24:25;;;;;;;14.93;5.93;;;;;;;;;;6245034;28;20488;-65
2022/01/16 07:27:28;;;;;;;12.18;5.28;;;;;;;;;;6244848;28;20034;-65
2022/01/16 07:30:31;;;;;;;17.65;5.88;;;;;;;;;;6244841;28;20482;-65
2022/01/16 07:33:38;;;;;;;14.70;5.65;;;;;;;;;;6243580;28;20134;-66
2022/01/16 07:36:41;;;;;;;14.32;6.93;;;;;;;;;;6244891;28;20867;-65
2022/01/16 07:39:44;;;;;;;16.83;6.45;;;;;;;;;;6243480;28;20140;-66
2022/01/16 07:42:47;;;;;;;17.67;7.10;;;;;;;;;;6246749;28;20069;-66
2022/01/16 07:45:52;;;;;;;15.38;7.28;;;;;;;;;;6248443;28;20042;-66
2022/01/16 07:48:56;;;;;;;18.38;8.20;;;;;;;;;;6245267;28;20095;-65
2022/01/16 07:51:59;;;;;;;16.80;7.40;;;;;;;;;;6244398;28;20052;-65
2022/01/16 07:55:05;;;;;;;19.25;7.72;;;;;;;;;;6244189;28;20120;-65
2022/01/16 07:58:08;;;;;;;18.17;8.10;;;;;;;;;;6244012;28;20057;-65
2022/01/16 08:01:11;;;;;;;23.63;10.38;;;;;;;;;;6242739;28;20087;-65
2022/01/16 08:04:16;;;;;;;30.73;12.85;;;;;;;;;;6243932;28;20079;-66
2022/01/16 08:07:19;;;;;;;34.90;15.07;;;;;;;;;;6242954;28;20069;-65
2022/01/16 08:10:22;;;;;;;36.55;16.42;;;;;;;;;;6243758;28;20103;-65
2022/01/16 08:13:25;;;;;;;33.33;16.42;;;;;;;;;;6243674;28;20569;-65
2022/01/16 08:16:28;;;;;;;38.80;16.30;;;;;;;;;;6243735;28;20594;-65
2022/01/16 08:19:32;;;;;;;35.75;16.92;;;;;;;;;;6243559;28;20514;-65
2022/01/16 08:22:37;;;;;;;39.47;19.13;;;;;;;;;;6243553;28;20045;-65
2022/01/16 08:25:41;;;;;;;34.05;17.23;;;;;;;;;;6243536;28;20080;-66
2022/01/16 08:28:44;;;;;;;40.03;18.85;;;;;;;;;;6243281;28;20129;-65
2022/01/16 08:31:49;;;;;;;38.38;20.42;;;;;;;;;;6241910;28;20109;-66
2022/01/16 08:34:53;;;;;;;44.92;20.25;;;;;;;;;;6243143;28;20049;-65
2022/01/16 08:37:56;;;;;;;39.70;18.80;;;;;;;;;;6241722;28;20052;-65
2022/01/16 08:40:59;;;;;;;44.92;21.55;;;;;;;;;;6241826;28;20046;-65
2022/01/16 08:44:02;;;;;;;43.35;19.55;;;;;;;;;;6242955;28;20057;-65
2022/01/16 08:47:06;;;;;;;40.15;19.67;;;;;;;;;;6242796;28;20056;-65
2022/01/16 08:50:11;;;;;;;39.28;19.48;;;;;;;;;;6242781;28;20049;-65
2022/01/16 08:53:13;;;;;;;43.58;19.45;;;;;;;;;;6241486;28;20420;-65
2022/01/16 08:56:16;;;;;;;39.63;19.13;;;;;;;;;;6242895;28;20471;-65
2022/01/16 08:59:20;;;;;;;40.58;18.85;;;;;;;;;;6242632;28;20049;-66
2022/01/16 09:02:23;;;;;;;40.70;18.70;;;;;;;;;;6241253;28;20068;-66
2022/01/16 09:05:27;;;;;;;38.75;19.73;;;;;;;;;;6242590;28;20074;-67
2022/01/16 09:08:30;;;;;;;42.58;19.55;;;;;;;;;;6242512;28;20072;-65
2022/01/16 09:11:33;;;;;;;42.55;18.75;;;;;;;;;;6242529;28;20496;-66
2022/01/16 09:14:36;;;;;;;44.22;19.98;;;;;;;;;;6242418;28;20077;-66
2022/01/16 09:17:42;;;;;;;34.70;18.50;;;;;;;;;;6240784;28;20049;-66
2022/01/16 09:20:46;;;;;;;40.65;18.35;;;;;;;;;;6241013;28;20077;-66
2022/01/16 09:23:50;;;;;;;39.97;19.13;;;;;;;;;;6241027;28;20049;-65
2022/01/16 09:26:56;;;;;;;48.78;23.67;;;;;;;;;;6240664;28;20049;-67
2022/01/16 09:30:02;;;;;;;37.70;18.95;;;;;;;;;;6240770;28;20120;-66
2022/01/16 09:33:05;;;;;;;45.30;19.63;;;;;;;;;;6242047;28;20045;-66
2022/01/16 09:36:12;;;;;;;40.83;19.08;;;;;;;;;;6242159;28;20049;-66
2022/01/16 09:39:20;;;;;;;41.38;18.38;;;;;;;;;;6224702;28;20045;-66
2022/01/16 09:42:23;;;;;;;39.20;18.02;;;;;;;;;;6224155;28;20046;-66
2022/01/16 09:45:26;;;;;;;37.35;18.10;;;;;;;;;;6240449;28;20053;-66
2022/01/16 09:48:30;;;;;;;41.88;17.52;;;;;;;;;;6240673;28;20467;-65
2022/01/16 09:51:35;;;;;;;43.83;18.05;;;;;;;;;;6241923;28;20045;-66
2022/01/16 09:54:38;;;;;;;40.30;19.35;;;;;;;;;;6240608;28;20042;-66
2022/01/16 09:57:41;;;;;;;41.00;17.58;;;;;;;;;;6241812;28;20520;-66
2022/01/16 10:00:44;;;;;;;42.35;18.52;;;;;;;;;;6240607;28;20053;-66
2022/01/16 10:03:51;;;;;;;43.08;19.90;;;;;;;;;;6242124;28;20040;-66
2022/01/16 10:06:57;;;;;;;43.95;19.33;;;;;;;;;;6241286;28;20128;-66
2022/01/16 10:10:07;;;;;;;38.33;18.23;;;;;;;;;;6241766;28;20519;-67
2022/01/16 10:13:21;;;;;;;38.40;19.25;;;;;;;;;;6241494;28;20049;-65
2022/01/16 10:16:28;;;;;;;37.33;17.00;;;;;;;;;;6223773;28;20068;-65
2022/01/16 10:19:31;;;;;;;39.95;19.13;;;;;;;;;;6241701;28;20411;-66
2022/01/16 10:22:39;;;;;;;34.72;17.92;;;;;;;;;;6241473;28;20041;-65
2022/01/16 10:25:45;;;;;;;35.95;19.55;;;;;;;;;;6241319;28;20507;-68
2022/01/16 10:28:48;;;;;;;39.07;17.97;;;;;;;;;;6241271;28;20477;-66
2022/01/16 10:31:51;;;;;;;39.92;18.27;;;;;;;;;;6227957;28;20407;-65
2022/01/16 10:34:55;;;;;;;42.33;18.75;;;;;;;;;;6245827;28;20072;-67
2022/01/16 10:37:59;;;;;;;58.80;26.95;;;;;;;;;;6246508;28;20042;-66
2022/01/16 10:41:04;;;;;;;36.42;18.48;;;;;;;;;;6244711;28;20145;-67
2022/01/16 10:44:24;;;;;;;45.47;19.17;;;;;;;;;;6245396;28;20061;-67
2022/01/16 10:47:29;;;;;;;37.40;18.40;;;;;;;;;;6244423;28;20076;-68
2022/01/16 10:50:33;;;;;;;38.92;18.73;;;;;;;;;;6245781;28;20041;-67
2022/01/16 10:53:40;;;;;;;40.50;19.30;;;;;;;;;;6244803;28;20041;-65
2022/01/16 10:56:46;;;;;;;44.25;18.95;;;;;;;;;;6227786;28;20042;-65
2022/01/16 10:59:49;;;;;;;37.83;17.90;;;;;;;;;;6245652;28;20585;-66
2022/01/16 11:02:55;;;;;;;;;;;;;;;;;;6244635;28;20069;-66
2022/01/16 11:05:58;;;;;;;36.85;17.25;;;;;;;;;;6243643;28;19963;-66
2022/01/16 11:09:04;;;;;;;37.45;18.33;;;;;;;;;;6245156;28;20407;-64
2022/01/16 11:12:07;;;;;;;38.03;18.48;;;;;;;;;;6245118;28;20080;-64
2022/01/16 11:15:10;;;;;;;40.17;19.33;;;;;;;;;;6245098;28;20061;-64
2022/01/16 11:18:16;;;;;;;41.13;18.70;;;;;;;;;;6243832;28;20065;-63
2022/01/16 11:21:30;;;;;;;40.85;19.92;;;;;;;;;;6227360;28;20053;-66
2022/01/16 11:24:46;;;;;;;44.67;20.08;;;;;;;;;;6245079;28;20060;-66
2022/01/16 11:27:49;;;;;;;43.45;20.42;;;;;;;;;;6244792;28;20049;-64
2022/01/16 11:30:54;;;;;;;45.08;20.25;;;;;;;;;;6244825;28;20065;-63
2022/01/16 11:33:57;;;;;;;44.17;19.77;;;;;;;;;;6243572;28;20104;-64
2022/01/16 11:37:00;;;;;;;45.53;20.08;;;;;;;;;;6243316;28;20476;-64
2022/01/16 11:40:17;;;;;;;41.05;20.27;;;;;;;;;;6244640;28;20045;-64
2022/01/16 11:43:24;;;;;;;41.67;20.17;;;;;;;;;;6244654;28;20081;-63
2022/01/16 11:46:27;;;;;;;41.25;20.50;;;;;;;;;;6243407;28;20045;-64
2022/01/16 11:49:34;;;;;;;39.20;20.15;;;;;;;;;;6243099;28;20519;-63
2022/01/16 11:52:39;;;;;;;43.88;21.58;;;;;;;;;;6244364;28;20140;-64
2022/01/16 11:55:44;;;;;;;40.75;20.48;;;;;;;;;;6244642;28;20072;-65
2022/01/16 11:59:01;;;;;;;45.08;22.00;;;;;;;;;;6244299;28;20041;-63
2022/01/16 12:02:17;;;;;;;43.55;22.17;;;;;;;;;;6243926;28;20084;-63
2022/01/16 12:05:23;;;;;;;50.07;23.57;;;;;;;;;;6226367;28;20480;-63
2022/01/16 12:08:35;;;;;;;46.35;21.42;;;;;;;;;;6244126;28;20069;-65
2022/01/16 12:11:38;;;;;;;44.30;21.60;;;;;;;;;;6244053;28;20041;-66
2022/01/16 12:14:47;;;;;;;42.38;22.30;;;;;;;;;;6242641;28;20045;-65
2022/01/16 12:17:51;;;;;;;51.25;23.98;;;;;;;;;;6243939;28;20071;-64
2022/01/16 12:20:54;;;;;;;45.22;22.52;;;;;;;;;;6242487;28;20045;-65
2022/01/16 12:23:57;;;;;;;47.67;22.23;;;;;;;;;;6243676;28;20405;-65
2022/01/16 12:27:25;;;;;;;47.95;22.60;;;;;;;;;;6242263;28;20056;-65
2022/01/16 12:30:35;;;;;;;48.63;23.02;;;;;;;;;;6243617;28;20492;-65
2022/01/16 12:33:42;;;;;;;45.22;22.65;;;;;;;;;;6242172;28;20073;-64
2022/01/16 12:36:46;;;;;;;48.05;22.27;;;;;;;;;;6243365;28;20052;-64
2022/01/16 12:39:52;;;;;;;51.00;24.27;;;;;;;;;;6243373;28;20116;-64
2022/01/16 12:42:55;;;;;;;48.50;21.95;;;;;;;;;;6241846;28;20041;-65
2022/01/16 12:45:59;;;;;;;48.75;22.58;;;;;;;;;;6241889;28;20076;-64
2022/01/16 12:49:06;;;;;;;47.33;23.33;;;;;;;;;;6243060;28;20061;-65
2022/01/16 12:52:10;;;;;;;50.63;23.98;;;;;;;;;;6242965;28;20073;-64
2022/01/16 12:55:13;;;;;;;46.15;22.33;;;;;;;;;;6242678;28;20052;-65
2022/01/16 12:58:16;;;;;;;49.10;23.63;;;;;;;;;;6241466;28;20076;-64
2022/01/16 13:01:19;;;;;;;49.80;23.35;;;;;;;;;;6242908;28;20135;-64
2022/01/16 13:04:26;;;;;;;;;;;;;;;;;;6243218;28;20048;-65
2022/01/16 13:07:30;;;;;;;40.72;21.65;;;;;;;;;;6242686;28;19921;-64
2022/01/16 13:10:33;;;;;;;44.85;21.77;;;;;;;;;;6242586;28;20487;-64
2022/01/16 13:13:37;;;;;;;42.80;21.02;;;;;;;;;;6242712;28;20045;-64
2022/01/16 13:16:41;;;;;;;42.22;21.00;;;;;;;;;;6242535;28;20080;-65
2022/01/16 13:19:51;;;;;;;;;;;;;;;;;;6242948;28;20051;-64
2022/01/16 13:22:57;;;;;;;41.45;21.23;;;;;;;;;;6242570;28;19952;-65
2022/01/16 13:26:02;;;;;;;43.15;21.27;;;;;;;;;;6241257;28;20046;-64
2022/01/16 13:29:06;;;;;;;44.10;21.02;;;;;;;;;;6242261;28;20077;-65
2022/01/16 13:32:12;;;;;;;41.00;20.08;;;;;;;;;;6242909;28;20049;-64
2022/01/16 13:35:20;;;;;;;41.78;20.30;;;;;;;;;;6242274;28;20444;-64
2022/01/16 13:38:29;;;;;;;44.92;21.92;;;;;;;;;;6242198;28;20045;-64
2022/01/16 13:41:33;;;;;;;42.67;20.60;;;;;;;;;;6242225;28;20077;-64
2022/01/16 13:44:35;;;;;;;41.08;21.00;;;;;;;;;;6241919;28;20053;-64
2022/01/16 13:47:38;;;;;;;42.10;20.23;;;;;;;;;;6249215;28;20075;-64
2022/01/16 13:50:45;;;;;;;44.83;20.73;;;;;;;;;;6267005;28;20055;-65
2022/01/16 13:53:49;;;;;;;38.47;20.05;;;;;;;;;;6266526;28;20048;-65
2022/01/16 13:56:53;;;;;;;38.17;20.45;;;;;;;;;;6266800;28;20051;-64
2022/01/16 13:59:57;;;;;;;44.08;20.73;;;;;;;;;;6266675;28;20060;-64
2022/01/16 14:03:13;;;;;;;40.28;21.10;;;;;;;;;;6266496;28;20053;-64
2022/01/16 14:06:16;;;;;;;40.47;22.10;;;;;;;;;;6269460;28;20048;-66
2022/01/16 14:09:22;;;;;;;43.35;21.42;;;;;;;;;;6271200;28;20048;-65
2022/01/16 14:12:25;;;;;;;39.67;21.60;;;;;;;;;;6271603;28;20052;-66
2022/01/16 14:15:28;;;;;;;42.72;21.23;;;;;;;;;;6271556;28;20128;-64
2022/01/16 14:18:42;;;;;;;47.47;23.20;;;;;;;;;;6253495;28;20068;-64
2022/01/16 14:22:02;;;;;;;45.92;22.73;;;;;;;;;;6271248;28;20045;-66
2022/01/16 14:25:07;;;;;;;44.80;22.75;;;;;;;;;;6271155;28;20134;-65
2022/01/16 14:28:10;;;;;;;41.65;22.33;;;;;;;;;;6270908;28;20053;-66
2022/01/16 14:31:13;;;;;;;45.47;22.15;;;;;;;;;;6270881;28;20073;-65
2022/01/16 14:34:22;;;;;;;51.03;24.13;;;;;;;;;;6253088;28;20558;-66
2022/01/16 14:37:25;;;;;;;46.33;23.55;;;;;;;;;;6270581;28;20079;-65
2022/01/16 14:40:29;;;;;;;48.80;23.90;;;;;;;;;;6262117;28;20116;-66
2022/01/16 14:43:51;;;;;;;46.78;22.33;;;;;;;;;;6268390;28;20083;-66
2022/01/16 14:46:55;;;;;;;45.55;23.10;;;;;;;;;;6270453;28;20049;-66
2022/01/16 14:49:58;;;;;;;48.20;24.35;;;;;;;;;;6270462;28;20037;-66
2022/01/16 14:53:01;;;;;;;48.78;24.70;;;;;;;;;;6252687;28;20323;-66
2022/01/16 14:56:05;;;;;;;51.40;24.33;;;;;;;;;;6270255;28;20071;-67
2022/01/16 14:59:09;;;;;;;48.10;24.48;;;;;;;;;;6270263;28;20060;-66
2022/01/16 15:02:12;;;;;;;50.40;24.15;;;;;;;;;;6252495;28;20083;-65
2022/01/16 15:05:15;;;;;;;51.13;24.65;;;;;;;;;;6252111;28;20394;-66
2022/01/16 15:08:19;;;;;;;52.95;25.00;;;;;;;;;;6252254;28;20049;-66
2022/01/16 15:11:23;;;;;;;52.55;24.35;;;;;;;;;;6251890;28;20041;-65
2022/01/16 15:14:26;;;;;;;64.88;32.45;;;;;;;;;;6252029;28;20041;-66
2022/01/16 15:17:31;;;;;;;49.22;24.23;;;;;;;;;;6251357;28;20071;-65
2022/01/16 15:20:35;;;;;;;55.53;26.27;;;;;;;;;;6251796;28;20071;-66
2022/01/16 15:23:58;;;;;;;51.78;24.65;;;;;;;;;;6269766;28;20484;-66
2022/01/16 15:27:04;;;;;;;;;;;;;;;;;;6252141;28;20048;-66
2022/01/16 15:30:13;;;;;;;57.85;25.48;;;;;;;;;;6269435;28;19921;-66
2022/01/16 15:33:19;;;;;;;57.10;25.80;;;;;;;;;;6269404;28;20065;-66
2022/01/16 15:36:23;;;;;;;56.35;26.50;;;;;;;;;;6269293;28;20060;-66
2022/01/16 15:39:28;;;;;;;56.70;27.42;;;;;;;;;;6269287;28;20048;-66
2022/01/16 15:42:31;;;;;;;57.22;27.42;;;;;;;;;;6269513;28;20051;-66
2022/01/16 15:45:38;;;;;;;59.42;28.23;;;;;;;;;;6269129;28;20080;-66
2022/01/16 15:48:41;;;;;;;57.13;27.92;;;;;;;;;;6250898;28;20051;-65
2022/01/16 15:51:46;;;;;;;59.05;28.63;;;;;;;;;;6250931;28;20053;-66
2022/01/16 15:54:56;;;;;;;60.95;28.05;;;;;;;;;;6251272;28;20056;-66
2022/01/16 15:57:59;;;;;;;62.78;29.58;;;;;;;;;;6251132;28;20072;-65
2022/01/16 16:01:06;;;;;;;62.10;28.55;;;;;;;;;;6268737;28;20041;-66
2022/01/16 16:04:09;;;;;;;58.38;28.10;;;;;;;;;;6269081;28;20071;-65
2022/01/16 16:07:12;;;;;;;63.30;28.35;;;;;;;;;;6268725;28;20141;-66
2022/01/16 16:10:17;;;;;;;60.70;28.52;;;;;;;;;;6250636;28;20375;-65
2022/01/16 16:13:20;;;;;;;58.33;28.38;;;;;;;;;;6268527;28;20053;-65
2022/01/16 16:16:24;;;;;;;60.65;27.95;;;;;;;;;;6268294;28;20080;-65
2022/01/16 16:19:27;;;;;;;61.53;28.67;;;;;;;;;;6268526;28;20219;-65
2022/01/16 16:22:30;;;;;;;59.58;29.15;;;;;;;;;;6268297;28;20077;-67
2022/01/16 16:25:35;;;;;;;74.70;30.13;;;;;;;;;;6268238;28;20411;-66
2022/01/16 16:28:41;;;;;;;64.47;28.85;;;;;;;;;;6267443;28;20049;-66
2022/01/16 16:31:45;;;;;;;63.53;29.27;;;;;;;;;;6249768;28;20053;-67
2022/01/16 16:34:48;;;;;;;67.13;30.40;;;;;;;;;;6268188;28;20051;-66
2022/01/16 16:37:52;;;;;;;61.60;28.98;;;;;;;;;;6249791;28;20407;-67
2022/01/16 16:41:02;;;;;;;65.85;28.23;;;;;;;;;;6249969;28;20480;-67
2022/01/16 16:44:06;;;;;;;61.50;29.55;;;;;;;;;;6267384;28;20084;-66
2022/01/16 16:47:11;;;;;;;64.65;29.77;;;;;;;;;;6267541;28;20060;-67
2022/01/16 16:50:16;;;;;;;64.47;30.40;;;;;;;;;;6268101;28;20182;-66
2022/01/16 16:53:29;;;;;;;61.83;28.65;;;;;;;;;;6267821;28;20080;-66
2022/01/16 16:56:45;;;;;;;63.33;28.85;;;;;;;;;;6249599;28;20049;-67
2022/01/16 16:59:48;;;;;;;68.00;28.95;;;;;;;;;;6249323;28;20037;-67
2022/01/16 17:02:52;;;;;;;68.72;29.30;;;;;;;;;;6267334;28;20056;-66
2022/01/16 17:05:55;;;;;;;65.22;29.33;;;;;;;;;;6266914;28;20068;-66
2022/01/16 17:08:58;;;;;;;63.20;29.75;;;;;;;;;;6267150;28;20120;-66
2022/01/16 17:12:01;;;;;;;62.35;28.92;;;;;;;;;;6267301;28;20077;-65
2022/01/16 17:15:04;;;;;;;67.30;30.20;;;;;;;;;;6266881;28;20175;-65
2022/01/16 17:18:12;;;;;;;58.97;28.15;;;;;;;;;;6249478;28;20045;-65
2022/01/16 17:21:23;;;;;;;66.45;29.17;;;;;;;;;;6248858;28;20399;-66
2022/01/16 17:24:26;;;;;;;64.57;30.67;;;;;;;;;;6249223;28;20041;-66
2022/01/16 17:27:29;;;;;;;71.32;29.70;;;;;;;;;;6266633;28;20041;-66
2022/01/16 17:30:32;;;;;;;63.85;29.50;;;;;;;;;;6266553;28;20466;-66
2022/01/16 17:33:36;;;;;;;85.60;37.25;;;;;;;;;;6244919;28;20061;-67
2022/01/16 17:36:39;;;;;;;71.45;30.30;;;;;;;;;;6240273;28;20527;-67
2022/01/16 17:39:42;;;;;;;67.20;30.40;;;;;;;;;;6240069;28;20045;-66
2022/01/16 17:42:48;;;;;;;67.38;28.90;;;;;;;;;;6241289;28;20095;-66
2022/01/16 17:45:51;;;;;;;71.47;32.30;;;;;;;;;;6241921;28;20053;-67
2022/01/16 17:48:58;;;;;;;64.38;30.02;;;;;;;;;;6241849;28;20069;-65
2022/01/16 17:52:01;;;;;;;68.60;30.88;;;;;;;;;;6241419;28;20037;-65
2022/01/16 17:55:04;;;;;;;64.95;30.08;;;;;;;;;;6241782;28;20077;-65
2022/01/16 17:58:10;;;;;;;70.97;30.20;;;;;;;;;;6241571;28;20782;-65
2022/01/16 18:01:13;;;;;;;67.25;31.23;;;;;;;;;;6241615;28;20045;-65
2022/01/16 18:04:18;;;;;;;68.63;30.48;;;;;;;;;;6223745;28;20168;-66
2022/01/16 18:07:21;;;;;;;67.00;30.58;;;;;;;;;;6241615;28;20467;-66
2022/01/16 18:10:24;;;;;;;69.70;31.23;;;;;;;;;;6241506;28;20045;-67
2022/01/16 18:13:27;;;;;;;68.15;30.55;;;;;;;;;;6223744;28;20076;-66
2022/01/16 18:16:30;;;;;;;68.93;31.10;;;;;;;;;;6224155;28;20412;-66
2022/01/16 18:19:36;;;;;;;61.78;29.58;;;;;;;;;;6241357;28;20077;-67
2022/01/16 18:22:39;;;;;;;69.10;31.25;;;;;;;;;;6241378;28;20071;-66
2022/01/16 18:25:42;;;;;;;69.03;29.98;;;;;;;;;;6241858;28;20072;-66
2022/01/16 18:28:45;;;;;;;65.57;30.48;;;;;;;;;;6241303;28;20050;-65
2022/01/16 18:31:48;;;;;;;68.18;30.60;;;;;;;;;;6241172;28;20053;-65
2022/01/16 18:34:52;;;;;;;71.47;31.05;;;;;;;;;;6223548;28;20127;-65
2022/01/16 18:37:55;;;;;;;67.45;32.28;;;;;;;;;;6239990;28;20087;-66
2022/01/16 18:41:00;;;;;;;68.28;31.15;;;;;;;;;;6240180;28;20103;-68